Terminal Aerodrome Forecast
Issued by NWS Portland, OR

Home | Current Version | Previous Version | Text Only | Print | Product List | Glossary On
Versions: 1 2 3 4 5 6 7 8 9 10 11 12 13 14 15 16 17 18 19 20 21 22 23 24 25 26 27 28 29 30 31 32 33 34
000
FTUS46 KPQR 232325
TAFSLE
TAF
KSLE 232325Z 2400/2424 20009KT P6SM -RA SCT050 OVC080
     FM240200 19008KT P6SM -RA SCT030 OVC045
     FM240400 17007KT 6SM RA BR SCT025 OVC035
     FM241100 18007KT P6SM -SHRA SCT025 BKN035
     FM241900 19012KT P6SM -SHRA VCTS SCT025 BKN040CB=

USA.gov is the U.S. government's official web portal to all federal, state and local government web resources and services.